sensor_id;sensor_type;location;lat;lon;timestamp;temperature;humidity
14735;DHT22;7458;49.002;8.472;2023-07-13T00:02:24;22.30;72.30
14735;DHT22;7458;49.002;8.472;2023-07-13T00:04:52;22.30;73.10
14735;DHT22;7458;49.002;8.472;2023-07-13T00:07:18;22.30;73.30
14735;DHT22;7458;49.002;8.472;2023-07-13T00:09:47;22.30;73.40
14735;DHT22;7458;49.002;8.472;2023-07-13T00:12:27;22.30;73.00
14735;DHT22;7458;49.002;8.472;2023-07-13T00:14:57;22.30;72.50
14735;DHT22;7458;49.002;8.472;2023-07-13T00:17:26;22.40;72.20
14735;DHT22;7458;49.002;8.472;2023-07-13T00:19:54;22.20;72.80
14735;DHT22;7458;49.002;8.472;2023-07-13T00:27:17;22.20;71.60
14735;DHT22;7458;49.002;8.472;2023-07-13T00:29:43;22.10;73.10
14735;DHT22;7458;49.002;8.472;2023-07-13T00:32:10;22.10;72.60
14735;DHT22;7458;49.002;8.472;2023-07-13T00:34:37;22.10;72.10
14735;DHT22;7458;49.002;8.472;2023-07-13T00:37:05;22.10;72.20
14735;DHT22;7458;49.002;8.472;2023-07-13T00:39:33;22.10;84.20
14735;DHT22;7458;49.002;8.472;2023-07-13T00:42:00;22.00;72.40
14735;DHT22;7458;49.002;8.472;2023-07-13T00:44:26;22.00;72.90
14735;DHT22;7458;49.002;8.472;2023-07-13T00:46:52;21.90;73.30
14735;DHT22;7458;49.002;8.472;2023-07-13T00:49:21;21.90;72.80
14735;DHT22;7458;49.002;8.472;2023-07-13T00:51:57;21.80;72.90
14735;DHT22;7458;49.002;8.472;2023-07-13T00:54:32;21.60;72.90
14735;DHT22;7458;49.002;8.472;2023-07-13T00:57:04;21.60;73.70
14735;DHT22;7458;49.002;8.472;2023-07-13T00:59:35;21.70;73.80
14735;DHT22;7458;49.002;8.472;2023-07-13T01:02:03;21.70;73.70
14735;DHT22;7458;49.002;8.472;2023-07-13T01:04:29;21.70;85.50
14735;DHT22;7458;49.002;8.472;2023-07-13T01:06:56;21.50;74.50
14735;DHT22;7458;49.002;8.472;2023-07-13T01:09:23;21.50;73.50
14735;DHT22;7458;49.002;8.472;2023-07-13T01:11:51;21.60;72.90
14735;DHT22;7458;49.002;8.472;2023-07-13T01:14:17;21.50;73.10
14735;DHT22;7458;49.002;8.472;2023-07-13T01:16:45;21.60;72.00
14735;DHT22;7458;49.002;8.472;2023-07-13T01:19:25;21.50;72.60
14735;DHT22;7458;49.002;8.472;2023-07-13T01:22:08;21.60;72.50
14735;DHT22;7458;49.002;8.472;2023-07-13T01:24:38;21.50;72.40
14735;DHT22;7458;49.002;8.472;2023-07-13T01:27:06;21.60;83.20
14735;DHT22;7458;49.002;8.472;2023-07-13T01:29:36;21.50;72.40
14735;DHT22;7458;49.002;8.472;2023-07-13T01:32:14;21.50;72.60
14735;DHT22;7458;49.002;8.472;2023-07-13T01:37:16;21.50;72.20
14735;DHT22;7458;49.002;8.472;2023-07-13T01:39:43;21.40;73.10
14735;DHT22;7458;49.002;8.472;2023-07-13T01:42:09;21.40;73.40
14735;DHT22;7458;49.002;8.472;2023-07-13T01:44:34;21.40;73.60
14735;DHT22;7458;49.002;8.472;2023-07-13T01:47:00;21.30;73.70
14735;DHT22;7458;49.002;8.472;2023-07-13T01:49:26;21.20;86.80
14735;DHT22;7458;49.002;8.472;2023-07-13T01:51:52;20.90;87.70
14735;DHT22;7458;49.002;8.472;2023-07-13T01:54:18;20.90;75.40
14735;DHT22;7458;49.002;8.472;2023-07-13T01:56:43;20.60;88.30
14735;DHT22;7458;49.002;8.472;2023-07-13T02:04:02;20.90;76.00
14735;DHT22;7458;49.002;8.472;2023-07-13T02:06:29;20.80;76.60
14735;DHT22;7458;49.002;8.472;2023-07-13T02:08:55;20.90;76.40
14735;DHT22;7458;49.002;8.472;2023-07-13T02:11:21;20.50;88.90
14735;DHT22;7458;49.002;8.472;2023-07-13T02:13:47;21.00;89.00
14735;DHT22;7458;49.002;8.472;2023-07-13T02:16:12;20.80;89.80
14735;DHT22;7458;49.002;8.472;2023-07-13T02:18:38;20.80;77.10
14735;DHT22;7458;49.002;8.472;2023-07-13T02:21:04;20.70;78.20
14735;DHT22;7458;49.002;8.472;2023-07-13T02:25:57;20.30;90.00
14735;DHT22;7458;49.002;8.472;2023-07-13T02:28:23;20.70;77.80
14735;DHT22;7458;49.002;8.472;2023-07-13T02:30:49;20.30;90.20
14735;DHT22;7458;49.002;8.472;2023-07-13T02:33:15;20.00;83.30
14735;DHT22;7458;49.002;8.472;2023-07-13T02:35:41;20.50;79.10
14735;DHT22;7458;49.002;8.472;2023-07-13T02:38:07;18.10;77.80
14735;DHT22;7458;49.002;8.472;2023-07-13T02:40:34;20.50;91.10
14735;DHT22;7458;49.002;8.472;2023-07-13T02:43:01;20.40;79.80
14735;DHT22;7458;49.002;8.472;2023-07-13T02:45:28;20.30;79.90
14735;DHT22;7458;49.002;8.472;2023-07-13T02:47:54;20.30;91.40
14735;DHT22;7458;49.002;8.472;2023-07-13T02:50:20;20.20;91.30
14735;DHT22;7458;49.002;8.472;2023-07-13T02:52:46;19.90;91.30
14735;DHT22;7458;49.002;8.472;2023-07-13T02:55:12;20.30;80.70
14735;DHT22;7458;49.002;8.472;2023-07-13T02:57:38;20.20;80.80
14735;DHT22;7458;49.002;8.472;2023-07-13T03:00:04;20.10;81.10
14735;DHT22;7458;49.002;8.472;2023-07-13T03:02:32;20.10;81.30
14735;DHT22;7458;49.002;8.472;2023-07-13T03:04:58;20.50;92.40
14735;DHT22;7458;49.002;8.472;2023-07-13T03:07:24;19.90;82.00
14735;DHT22;7458;49.002;8.472;2023-07-13T03:09:55;19.80;82.20
14735;DHT22;7458;49.002;8.472;2023-07-13T03:12:22;19.70;82.80
14735;DHT22;7458;49.002;8.472;2023-07-13T03:14:48;20.00;92.50
14735;DHT22;7458;49.002;8.472;2023-07-13T03:22:06;19.70;82.70
14735;DHT22;7458;49.002;8.472;2023-07-13T03:24:33;19.70;83.50
14735;DHT22;7458;49.002;8.472;2023-07-13T03:27:01;19.80;83.70
14735;DHT22;7458;49.002;8.472;2023-07-13T03:29:29;19.90;92.80
14735;DHT22;7458;49.002;8.472;2023-07-13T03:31:54;19.80;84.20
14735;DHT22;7458;49.002;8.472;2023-07-13T03:34:20;19.90;84.10
14735;DHT22;7458;49.002;8.472;2023-07-13T03:36:46;19.90;83.90
14735;DHT22;7458;49.002;8.472;2023-07-13T03:39:12;19.90;83.70
14735;DHT22;7458;49.002;8.472;2023-07-13T03:41:38;19.90;83.80
14735;DHT22;7458;49.002;8.472;2023-07-13T03:46:30;19.70;84.60
14735;DHT22;7458;49.002;8.472;2023-07-13T03:48:57;19.60;93.00
14735;DHT22;7458;49.002;8.472;2023-07-13T03:51:23;19.60;93.00
14735;DHT22;7458;49.002;8.472;2023-07-13T03:53:49;19.60;84.30
14735;DHT22;7458;49.002;8.472;2023-07-13T03:56:16;19.50;85.90
14735;DHT22;7458;49.002;8.472;2023-07-13T03:58:45;19.60;85.60
14735;DHT22;7458;49.002;8.472;2023-07-13T04:01:14;19.50;94.80
14735;DHT22;7458;49.002;8.472;2023-07-13T04:06:16;19.40;87.10
14735;DHT22;7458;49.002;8.472;2023-07-13T04:08:47;19.30;88.80
14735;DHT22;7458;49.002;8.472;2023-07-13T04:11:16;19.30;88.80
14735;DHT22;7458;49.002;8.472;2023-07-13T04:13:43;19.40;88.90
14735;DHT22;7458;49.002;8.472;2023-07-13T04:16:09;19.30;89.10
14735;DHT22;7458;49.002;8.472;2023-07-13T04:18:35;19.30;89.10
14735;DHT22;7458;49.002;8.472;2023-07-13T04:21:01;19.40;95.90
14735;DHT22;7458;49.002;8.472;2023-07-13T04:23:27;19.30;90.00
14735;DHT22;7458;49.002;8.472;2023-07-13T04:25:53;19.40;89.50
14735;DHT22;7458;49.002;8.472;2023-07-13T04:28:21;19.50;89.40
14735;DHT22;7458;49.002;8.472;2023-07-13T04:30:48;19.50;90.20
14735;DHT22;7458;49.002;8.472;2023-07-13T04:33:15;19.60;90.00
14735;DHT22;7458;49.002;8.472;2023-07-13T04:35:43;19.60;89.00
14735;DHT22;7458;49.002;8.472;2023-07-13T04:40:38;19.70;86.80
14735;DHT22;7458;49.002;8.472;2023-07-13T04:43:04;19.80;87.40
14735;DHT22;7458;49.002;8.472;2023-07-13T04:45:29;19.90;87.20
14735;DHT22;7458;49.002;8.472;2023-07-13T04:47:56;20.00;86.30
14735;DHT22;7458;49.002;8.472;2023-07-13T04:50:22;20.20;93.20
14735;DHT22;7458;49.002;8.472;2023-07-13T04:52:51;20.00;85.10
14735;DHT22;7458;49.002;8.472;2023-07-13T04:55:19;20.00;84.90
14735;DHT22;7458;49.002;8.472;2023-07-13T04:57:45;20.10;84.50
14735;DHT22;7458;49.002;8.472;2023-07-13T05:00:12;20.00;84.50
14735;DHT22;7458;49.002;8.472;2023-07-13T05:02:43;20.00;84.70
14735;DHT22;7458;49.002;8.472;2023-07-13T05:05:10;19.90;85.10
14735;DHT22;7458;49.002;8.472;2023-07-13T05:07:36;20.00;85.40
14735;DHT22;7458;49.002;8.472;2023-07-13T05:10:03;19.80;93.00
14735;DHT22;7458;49.002;8.472;2023-07-13T05:12:30;20.10;93.00
14735;DHT22;7458;49.002;8.472;2023-07-13T05:14:56;20.10;85.00
14735;DHT22;7458;49.002;8.472;2023-07-13T05:17:22;20.20;85.10
14735;DHT22;7458;49.002;8.472;2023-07-13T05:19:48;20.30;84.60
14735;DHT22;7458;49.002;8.472;2023-07-13T05:22:13;20.40;93.60
14735;DHT22;7458;49.002;8.472;2023-07-13T05:24:39;20.50;94.90
14735;DHT22;7458;49.002;8.472;2023-07-13T05:27:05;20.20;89.00
14735;DHT22;7458;49.002;8.472;2023-07-13T05:29:31;20.30;89.20
14735;DHT22;7458;49.002;8.472;2023-07-13T05:31:57;20.30;90.10
14735;DHT22;7458;49.002;8.472;2023-07-13T05:34:23;20.30;93.10
14735;DHT22;7458;49.002;8.472;2023-07-13T05:36:49;20.00;90.50
14735;DHT22;7458;49.002;8.472;2023-07-13T05:39:15;20.10;90.50
14735;DHT22;7458;49.002;8.472;2023-07-13T05:41:41;20.20;90.40
14735;DHT22;7458;49.002;8.472;2023-07-13T05:44:07;20.20;90.60
14735;DHT22;7458;49.002;8.472;2023-07-13T05:46:33;20.10;90.80
14735;DHT22;7458;49.002;8.472;2023-07-13T05:48:59;20.10;91.10
14735;DHT22;7458;49.002;8.472;2023-07-13T05:51:25;20.20;91.10
14735;DHT22;7458;49.002;8.472;2023-07-13T05:53:51;20.20;91.40
14735;DHT22;7458;49.002;8.472;2023-07-13T05:56:16;20.20;91.20
14735;DHT22;7458;49.002;8.472;2023-07-13T05:58:42;20.30;96.50
14735;DHT22;7458;49.002;8.472;2023-07-13T06:01:13;20.40;90.90
14735;DHT22;7458;49.002;8.472;2023-07-13T06:03:40;20.60;90.90
14735;DHT22;7458;49.002;8.472;2023-07-13T06:06:07;20.90;95.80
14735;DHT22;7458;49.002;8.472;2023-07-13T06:08:35;20.90;90.40
14735;DHT22;7458;49.002;8.472;2023-07-13T06:11:13;21.40;88.80
14735;DHT22;7458;49.002;8.472;2023-07-13T06:13:41;21.50;87.90
14735;DHT22;7458;49.002;8.472;2023-07-13T06:16:07;21.70;87.00
14735;DHT22;7458;49.002;8.472;2023-07-13T06:18:35;21.80;85.80
14735;DHT22;7458;49.002;8.472;2023-07-13T06:21:08;22.20;83.60
14735;DHT22;7458;49.002;8.472;2023-07-13T06:23:36;22.80;81.00
14735;DHT22;7458;49.002;8.472;2023-07-13T06:26:03;23.20;74.20
14735;DHT22;7458;49.002;8.472;2023-07-13T06:28:30;23.70;71.60
14735;DHT22;7458;49.002;8.472;2023-07-13T06:30:58;23.80;72.00
14735;DHT22;7458;49.002;8.472;2023-07-13T06:33:25;23.80;70.30
14735;DHT22;7458;49.002;8.472;2023-07-13T06:35:51;23.70;71.40
14735;DHT22;7458;49.002;8.472;2023-07-13T06:38:17;23.90;70.10
14735;DHT22;7458;49.002;8.472;2023-07-13T06:40:43;24.50;69.30
14735;DHT22;7458;49.002;8.472;2023-07-13T06:43:09;25.20;68.30
14735;DHT22;7458;49.002;8.472;2023-07-13T06:45:45;26.10;67.70
14735;DHT22;7458;49.002;8.472;2023-07-13T06:48:15;26.40;63.70
14735;DHT22;7458;49.002;8.472;2023-07-13T06:50:42;26.30;61.60
14735;DHT22;7458;49.002;8.472;2023-07-13T06:53:09;26.40;62.70
14735;DHT22;7458;49.002;8.472;2023-07-13T06:55:35;26.40;63.10
14735;DHT22;7458;49.002;8.472;2023-07-13T06:58:01;26.60;61.70
14735;DHT22;7458;49.002;8.472;2023-07-13T07:00:27;26.80;61.70
14735;DHT22;7458;49.002;8.472;2023-07-13T07:02:52;27.40;60.50
14735;DHT22;7458;49.002;8.472;2023-07-13T07:05:18;27.90;58.60
14735;DHT22;7458;49.002;8.472;2023-07-13T07:07:50;29.10;56.00
14735;DHT22;7458;49.002;8.472;2023-07-13T07:12:45;31.80;48.70
14735;DHT22;7458;49.002;8.472;2023-07-13T07:15:11;32.80;47.40
14735;DHT22;7458;49.002;8.472;2023-07-13T07:17:38;33.60;46.10
14735;DHT22;7458;49.002;8.472;2023-07-13T07:20:04;34.00;44.10
14735;DHT22;7458;49.002;8.472;2023-07-13T07:22:31;34.10;43.90
14735;DHT22;7458;49.002;8.472;2023-07-13T07:24:57;34.60;42.70
14735;DHT22;7458;49.002;8.472;2023-07-13T07:27:24;35.40;42.30
14735;DHT22;7458;49.002;8.472;2023-07-13T07:29:50;35.60;41.60
14735;DHT22;7458;49.002;8.472;2023-07-13T07:32:16;35.10;40.20
14735;DHT22;7458;49.002;8.472;2023-07-13T07:34:42;35.40;39.70
14735;DHT22;7458;49.002;8.472;2023-07-13T07:37:11;35.70;39.70
14735;DHT22;7458;49.002;8.472;2023-07-13T07:39:38;36.20;38.50
14735;DHT22;7458;49.002;8.472;2023-07-13T07:42:05;36.00;38.30
14735;DHT22;7458;49.002;8.472;2023-07-13T07:44:31;35.70;37.40
14735;DHT22;7458;49.002;8.472;2023-07-13T07:46:58;36.30;37.40
14735;DHT22;7458;49.002;8.472;2023-07-13T07:49:24;36.00;37.20
14735;DHT22;7458;49.002;8.472;2023-07-13T07:51:50;35.50;35.20
14735;DHT22;7458;49.002;8.472;2023-07-13T07:54:17;35.70;37.00
14735;DHT22;7458;49.002;8.472;2023-07-13T07:56:43;36.30;35.70
14735;DHT22;7458;49.002;8.472;2023-07-13T07:59:09;35.00;36.30
14735;DHT22;7458;49.002;8.472;2023-07-13T08:01:35;34.90;37.00
14735;DHT22;7458;49.002;8.472;2023-07-13T08:04:01;35.40;35.40
14735;DHT22;7458;49.002;8.472;2023-07-13T08:06:27;35.00;36.70
14735;DHT22;7458;49.002;8.472;2023-07-13T08:08:54;34.70;35.40
14735;DHT22;7458;49.002;8.472;2023-07-13T08:11:21;34.90;35.10
14735;DHT22;7458;49.002;8.472;2023-07-13T08:13:47;35.10;35.10
14735;DHT22;7458;49.002;8.472;2023-07-13T08:16:14;35.00;36.70
14735;DHT22;7458;49.002;8.472;2023-07-13T08:18:40;34.30;38.20
14735;DHT22;7458;49.002;8.472;2023-07-13T08:21:07;33.70;39.20
14735;DHT22;7458;49.002;8.472;2023-07-13T08:23:35;32.70;38.00
14735;DHT22;7458;49.002;8.472;2023-07-13T08:26:03;33.10;41.60
14735;DHT22;7458;49.002;8.472;2023-07-13T08:28:30;32.30;40.90
14735;DHT22;7458;49.002;8.472;2023-07-13T08:31:05;32.10;42.10
14735;DHT22;7458;49.002;8.472;2023-07-13T08:33:34;31.70;42.00
14735;DHT22;7458;49.002;8.472;2023-07-13T08:36:01;32.20;40.70
14735;DHT22;7458;49.002;8.472;2023-07-13T08:38:27;31.60;41.30
14735;DHT22;7458;49.002;8.472;2023-07-13T08:40:55;31.10;42.00
14735;DHT22;7458;49.002;8.472;2023-07-13T08:43:33;30.70;41.70
14735;DHT22;7458;49.002;8.472;2023-07-13T08:48:52;31.70;41.80
14735;DHT22;7458;49.002;8.472;2023-07-13T08:56:49;31.80;40.60
14735;DHT22;7458;49.002;8.472;2023-07-13T08:59:21;31.50;51.70
14735;DHT22;7458;49.002;8.472;2023-07-13T09:02:28;31.90;43.60
14735;DHT22;7458;49.002;8.472;2023-07-13T09:05:17;31.80;39.60
14735;DHT22;7458;49.002;8.472;2023-07-13T09:10:46;31.80;41.50
14735;DHT22;7458;49.002;8.472;2023-07-13T09:16:51;31.50;40.90
14735;DHT22;7458;49.002;8.472;2023-07-13T09:19:23;31.10;42.30
14735;DHT22;7458;49.002;8.472;2023-07-13T09:21:55;30.90;40.50
14735;DHT22;7458;49.002;8.472;2023-07-13T09:24:34;30.00;48.60
14735;DHT22;7458;49.002;8.472;2023-07-13T09:27:18;29.90;42.00
14735;DHT22;7458;49.002;8.472;2023-07-13T09:32:41;30.50;41.00
14735;DHT22;7458;49.002;8.472;2023-07-13T09:35:19;30.50;40.60
14735;DHT22;7458;49.002;8.472;2023-07-13T09:37:48;30.70;40.80
14735;DHT22;7458;49.002;8.472;2023-07-13T09:40:51;30.40;40.50
14735;DHT22;7458;49.002;8.472;2023-07-13T09:44:18;30.40;41.30
14735;DHT22;7458;49.002;8.472;2023-07-13T09:46:55;30.50;41.50
14735;DHT22;7458;49.002;8.472;2023-07-13T09:49:29;30.50;40.60
14735;DHT22;7458;49.002;8.472;2023-07-13T09:52:03;30.60;40.60
14735;DHT22;7458;49.002;8.472;2023-07-13T09:54:37;30.40;41.30
14735;DHT22;7458;49.002;8.472;2023-07-13T09:57:12;30.50;40.10
14735;DHT22;7458;49.002;8.472;2023-07-13T09:59:43;30.40;40.60
14735;DHT22;7458;49.002;8.472;2023-07-13T10:02:32;30.30;41.10
14735;DHT22;7458;49.002;8.472;2023-07-13T10:05:06;30.50;41.00
14735;DHT22;7458;49.002;8.472;2023-07-13T10:07:41;30.50;40.50
14735;DHT22;7458;49.002;8.472;2023-07-13T10:10:22;30.40;41.00
14735;DHT22;7458;49.002;8.472;2023-07-13T10:12:49;30.70;40.20
14735;DHT22;7458;49.002;8.472;2023-07-13T10:15:24;30.90;39.50
14735;DHT22;7458;49.002;8.472;2023-07-13T10:17:53;30.90;39.00
14735;DHT22;7458;49.002;8.472;2023-07-13T10:20:21;31.00;39.10
14735;DHT22;7458;49.002;8.472;2023-07-13T10:23:00;31.00;39.30
14735;DHT22;7458;49.002;8.472;2023-07-13T10:25:35;31.20;39.70
14735;DHT22;7458;49.002;8.472;2023-07-13T10:28:35;31.30;39.50
14735;DHT22;7458;49.002;8.472;2023-07-13T10:31:07;31.30;38.80
14735;DHT22;7458;49.002;8.472;2023-07-13T10:33:38;31.20;39.50
14735;DHT22;7458;49.002;8.472;2023-07-13T10:36:26;31.30;39.20
14735;DHT22;7458;49.002;8.472;2023-07-13T10:38:57;31.00;40.20
14735;DHT22;7458;49.002;8.472;2023-07-13T10:41:28;31.00;39.30
14735;DHT22;7458;49.002;8.472;2023-07-13T10:43:59;30.80;39.30
14735;DHT22;7458;49.002;8.472;2023-07-13T10:46:27;31.10;40.10
14735;DHT22;7458;49.002;8.472;2023-07-13T10:48:59;31.20;39.10
14735;DHT22;7458;49.002;8.472;2023-07-13T10:51:30;31.20;39.40
14735;DHT22;7458;49.002;8.472;2023-07-13T10:54:19;31.10;40.10
14735;DHT22;7458;49.002;8.472;2023-07-13T10:57:26;30.60;38.90
14735;DHT22;7458;49.002;8.472;2023-07-13T11:02:28;31.00;41.10
14735;DHT22;7458;49.002;8.472;2023-07-13T11:04:55;31.00;38.90
14735;DHT22;7458;49.002;8.472;2023-07-13T11:07:24;31.30;38.70
14735;DHT22;7458;49.002;8.472;2023-07-13T11:09:55;31.50;38.90
14735;DHT22;7458;49.002;8.472;2023-07-13T11:20:32;31.30;39.90
14735;DHT22;7458;49.002;8.472;2023-07-13T11:25:37;31.00;40.30
14735;DHT22;7458;49.002;8.472;2023-07-13T11:36:07;31.50;38.30
14735;DHT22;7458;49.002;8.472;2023-07-13T11:38:45;31.50;39.00
14735;DHT22;7458;49.002;8.472;2023-07-13T11:41:27;30.90;37.50
14735;DHT22;7458;49.002;8.472;2023-07-13T11:44:12;31.60;38.40
14735;DHT22;7458;49.002;8.472;2023-07-13T11:46:45;31.10;38.40
14735;DHT22;7458;49.002;8.472;2023-07-13T11:49:18;31.40;38.60
14735;DHT22;7458;49.002;8.472;2023-07-13T11:51:46;31.40;38.40
14735;DHT22;7458;49.002;8.472;2023-07-13T11:54:30;31.80;37.70
14735;DHT22;7458;49.002;8.472;2023-07-13T11:57:10;32.00;37.80
14735;DHT22;7458;49.002;8.472;2023-07-13T11:59:54;31.90;36.20
14735;DHT22;7458;49.002;8.472;2023-07-13T12:02:42;31.80;36.70
14735;DHT22;7458;49.002;8.472;2023-07-13T12:05:14;31.60;36.30
14735;DHT22;7458;49.002;8.472;2023-07-13T12:07:43;31.70;37.10
14735;DHT22;7458;49.002;8.472;2023-07-13T12:10:20;31.30;37.40
14735;DHT22;7458;49.002;8.472;2023-07-13T12:12:52;31.40;38.30
14735;DHT22;7458;49.002;8.472;2023-07-13T12:15:23;31.40;37.40
14735;DHT22;7458;49.002;8.472;2023-07-13T12:17:52;31.00;38.50
14735;DHT22;7458;49.002;8.472;2023-07-13T12:20:35;30.90;40.40
14735;DHT22;7458;49.002;8.472;2023-07-13T12:23:06;30.70;39.80
14735;DHT22;7458;49.002;8.472;2023-07-13T12:25:46;30.90;40.60
14735;DHT22;7458;49.002;8.472;2023-07-13T12:28:31;31.10;38.00
14735;DHT22;7458;49.002;8.472;2023-07-13T12:31:04;31.30;38.20
14735;DHT22;7458;49.002;8.472;2023-07-13T12:33:33;31.10;37.50
14735;DHT22;7458;49.002;8.472;2023-07-13T12:36:02;31.20;37.20
14735;DHT22;7458;49.002;8.472;2023-07-13T12:38:31;31.00;37.50
14735;DHT22;7458;49.002;8.472;2023-07-13T12:40:58;31.00;38.20
14735;DHT22;7458;49.002;8.472;2023-07-13T12:43:27;30.90;37.30
14735;DHT22;7458;49.002;8.472;2023-07-13T12:46:03;30.90;37.30
14735;DHT22;7458;49.002;8.472;2023-07-13T12:48:38;30.90;38.50
14735;DHT22;7458;49.002;8.472;2023-07-13T12:51:10;31.00;36.90
14735;DHT22;7458;49.002;8.472;2023-07-13T12:53:43;31.00;36.60
14735;DHT22;7458;49.002;8.472;2023-07-13T12:56:19;30.80;36.20
14735;DHT22;7458;49.002;8.472;2023-07-13T12:58:49;30.60;36.00
14735;DHT22;7458;49.002;8.472;2023-07-13T13:01:21;30.70;36.70
14735;DHT22;7458;49.002;8.472;2023-07-13T13:03:52;30.60;36.40
14735;DHT22;7458;49.002;8.472;2023-07-13T13:06:24;30.40;37.20
14735;DHT22;7458;49.002;8.472;2023-07-13T13:08:57;30.50;37.30
14735;DHT22;7458;49.002;8.472;2023-07-13T13:11:25;30.60;38.30
14735;DHT22;7458;49.002;8.472;2023-07-13T13:13:53;30.40;37.90
14735;DHT22;7458;49.002;8.472;2023-07-13T13:18:53;30.20;36.80
14735;DHT22;7458;49.002;8.472;2023-07-13T13:21:24;30.20;38.10
14735;DHT22;7458;49.002;8.472;2023-07-13T13:23:50;30.20;38.20
14735;DHT22;7458;49.002;8.472;2023-07-13T13:26:18;30.40;37.10
14735;DHT22;7458;49.002;8.472;2023-07-13T13:28:46;30.40;36.90
14735;DHT22;7458;49.002;8.472;2023-07-13T13:31:13;30.10;37.90
14735;DHT22;7458;49.002;8.472;2023-07-13T13:33:44;29.80;38.40
14735;DHT22;7458;49.002;8.472;2023-07-13T13:36:16;29.90;39.00
14735;DHT22;7458;49.002;8.472;2023-07-13T13:38:43;30.20;38.40
14735;DHT22;7458;49.002;8.472;2023-07-13T13:41:11;29.80;45.90
14735;DHT22;7458;49.002;8.472;2023-07-13T13:43:39;30.10;37.60
14735;DHT22;7458;49.002;8.472;2023-07-13T13:46:19;30.30;37.50
14735;DHT22;7458;49.002;8.472;2023-07-13T13:48:48;30.20;36.40
14735;DHT22;7458;49.002;8.472;2023-07-13T13:51:22;30.10;38.40
14735;DHT22;7458;49.002;8.472;2023-07-13T13:53:50;30.00;37.40
14735;DHT22;7458;49.002;8.472;2023-07-13T13:56:18;29.70;37.60
14735;DHT22;7458;49.002;8.472;2023-07-13T13:58:44;29.60;38.00
14735;DHT22;7458;49.002;8.472;2023-07-13T14:01:21;29.60;38.60
14735;DHT22;7458;49.002;8.472;2023-07-13T14:03:50;29.30;38.90
14735;DHT22;7458;49.002;8.472;2023-07-13T14:06:19;29.10;39.00
14735;DHT22;7458;49.002;8.472;2023-07-13T14:08:45;29.30;39.90
14735;DHT22;7458;49.002;8.472;2023-07-13T14:11:19;29.50;39.70
14735;DHT22;7458;49.002;8.472;2023-07-13T14:13:52;29.30;39.30
14735;DHT22;7458;49.002;8.472;2023-07-13T14:16:22;29.20;39.10
14735;DHT22;7458;49.002;8.472;2023-07-13T14:18:53;29.30;39.10
14735;DHT22;7458;49.002;8.472;2023-07-13T14:21:22;29.40;39.60
14735;DHT22;7458;49.002;8.472;2023-07-13T14:23:48;29.20;39.20
14735;DHT22;7458;49.002;8.472;2023-07-13T14:26:18;29.20;38.90
14735;DHT22;7458;49.002;8.472;2023-07-13T14:28:48;29.50;40.00
14735;DHT22;7458;49.002;8.472;2023-07-13T14:31:17;29.60;39.80
14735;DHT22;7458;49.002;8.472;2023-07-13T14:33:44;29.60;38.90
14735;DHT22;7458;49.002;8.472;2023-07-13T14:39:19;29.50;38.20
14735;DHT22;7458;49.002;8.472;2023-07-13T14:41:53;29.30;39.20
14735;DHT22;7458;49.002;8.472;2023-07-13T14:44:23;29.50;40.60
14735;DHT22;7458;49.002;8.472;2023-07-13T14:46:52;29.40;40.40
14735;DHT22;7458;49.002;8.472;2023-07-13T14:49:37;29.30;41.40
14735;DHT22;7458;49.002;8.472;2023-07-13T14:52:20;29.40;40.60
14735;DHT22;7458;49.002;8.472;2023-07-13T14:54:48;29.40;40.50
14735;DHT22;7458;49.002;8.472;2023-07-13T14:57:18;29.30;39.00
14735;DHT22;7458;49.002;8.472;2023-07-13T14:59:46;26.70;37.70
14735;DHT22;7458;49.002;8.472;2023-07-13T15:02:29;29.20;39.70
14735;DHT22;7458;49.002;8.472;2023-07-13T15:04:59;28.90;40.40
14735;DHT22;7458;49.002;8.472;2023-07-13T15:07:26;28.70;40.50
14735;DHT22;7458;49.002;8.472;2023-07-13T15:09:52;28.70;42.10
14735;DHT22;7458;49.002;8.472;2023-07-13T15:12:18;28.60;41.60
14735;DHT22;7458;49.002;8.472;2023-07-13T15:14:45;28.70;42.10
14735;DHT22;7458;49.002;8.472;2023-07-13T15:17:38;28.60;42.10
14735;DHT22;7458;49.002;8.472;2023-07-13T15:22:49;28.70;42.20
14735;DHT22;7458;49.002;8.472;2023-07-13T15:25:23;28.60;42.00
14735;DHT22;7458;49.002;8.472;2023-07-13T15:27:51;28.60;42.80
14735;DHT22;7458;49.002;8.472;2023-07-13T15:30:18;28.50;41.50
14735;DHT22;7458;49.002;8.472;2023-07-13T15:32:45;28.60;41.70
14735;DHT22;7458;49.002;8.472;2023-07-13T15:35:17;28.60;41.90
14735;DHT22;7458;49.002;8.472;2023-07-13T15:37:45;28.60;41.80
14735;DHT22;7458;49.002;8.472;2023-07-13T15:40:13;28.70;43.00
14735;DHT22;7458;49.002;8.472;2023-07-13T15:42:41;28.70;42.00
14735;DHT22;7458;49.002;8.472;2023-07-13T15:45:23;28.80;42.90
14735;DHT22;7458;49.002;8.472;2023-07-13T15:48:00;28.60;41.80
14735;DHT22;7458;49.002;8.472;2023-07-13T15:50:26;28.70;50.60
14735;DHT22;7458;49.002;8.472;2023-07-13T15:53:09;28.60;42.00
14735;DHT22;7458;49.002;8.472;2023-07-13T15:55:38;28.30;50.90
14735;DHT22;7458;49.002;8.472;2023-07-13T15:58:07;28.40;42.20
14735;DHT22;7458;49.002;8.472;2023-07-13T16:00:36;28.60;51.40
14735;DHT22;7458;49.002;8.472;2023-07-13T16:03:02;28.50;42.40
14735;DHT22;7458;49.002;8.472;2023-07-13T16:05:28;28.60;42.20
14735;DHT22;7458;49.002;8.472;2023-07-13T16:07:55;28.60;42.50
14735;DHT22;7458;49.002;8.472;2023-07-13T16:10:27;28.70;50.70
14735;DHT22;7458;49.002;8.472;2023-07-13T16:12:57;28.40;42.00
14735;DHT22;7458;49.002;8.472;2023-07-13T16:15:24;28.50;42.20
14735;DHT22;7458;49.002;8.472;2023-07-13T16:17:50;28.50;42.40
14735;DHT22;7458;49.002;8.472;2023-07-13T16:20:17;28.40;42.50
14735;DHT22;7458;49.002;8.472;2023-07-13T16:22:51;28.60;51.40
14735;DHT22;7458;49.002;8.472;2023-07-13T16:25:19;28.50;42.50
14735;DHT22;7458;49.002;8.472;2023-07-13T16:27:49;28.60;42.50
14735;DHT22;7458;49.002;8.472;2023-07-13T16:30:23;28.40;42.50
14735;DHT22;7458;49.002;8.472;2023-07-13T16:32:52;28.50;42.10
14735;DHT22;7458;49.002;8.472;2023-07-13T16:35:22;28.30;42.60
14735;DHT22;7458;49.002;8.472;2023-07-13T16:37:52;28.20;42.30
14735;DHT22;7458;49.002;8.472;2023-07-13T16:40:27;28.40;43.00
14735;DHT22;7458;49.002;8.472;2023-07-13T16:42:56;28.20;42.30
14735;DHT22;7458;49.002;8.472;2023-07-13T16:45:25;28.50;42.40
14735;DHT22;7458;49.002;8.472;2023-07-13T16:47:56;28.20;42.80
14735;DHT22;7458;49.002;8.472;2023-07-13T16:50:25;28.70;53.00
14735;DHT22;7458;49.002;8.472;2023-07-13T16:52:55;28.10;43.80
14735;DHT22;7458;49.002;8.472;2023-07-13T16:55:22;28.10;44.10
14735;DHT22;7458;49.002;8.472;2023-07-13T16:57:54;28.10;43.20
14735;DHT22;7458;49.002;8.472;2023-07-13T17:00:26;28.00;52.30
14735;DHT22;7458;49.002;8.472;2023-07-13T17:02:54;28.10;52.50
14735;DHT22;7458;49.002;8.472;2023-07-13T17:05:48;28.00;43.00
14735;DHT22;7458;49.002;8.472;2023-07-13T17:08:16;28.10;42.80
14735;DHT22;7458;49.002;8.472;2023-07-13T17:10:51;28.10;42.90
14735;DHT22;7458;49.002;8.472;2023-07-13T17:13:20;28.00;44.00
14735;DHT22;7458;49.002;8.472;2023-07-13T17:15:51;28.00;43.50
14735;DHT22;7458;49.002;8.472;2023-07-13T17:18:22;27.90;43.70
14735;DHT22;7458;49.002;8.472;2023-07-13T17:20:50;27.90;43.40